Time;durP1;ratioP1;P1;durP2;ratioP2;P2;SDS_P1;SDS_P2;PMS_P1;PMS_P2;Temp;Humidity;BMP_temperature;BMP_pressure;BME280_temperature;BME280_humidity;BME280_pressure;Samples;Min_cycle;Max_cycle;Signal;HPM_P1;HPM_P2
2021/06/04 00:01:43;;;;;;;43.83;21.92;;;20.70;64.10;;;;;;5009881;28;20136;-64
2021/06/04 00:04:09;;;;;;;45.53;22.48;;;20.70;64.20;;;;;;5003496;28;20100;-64
2021/06/04 00:06:37;;;;;;;47.13;24.23;;;20.70;64.20;;;;;;5017585;28;20030;-64
2021/06/04 00:09:08;;;;;;;41.92;22.88;;;20.70;64.40;;;;;;5002172;28;20099;-64
2021/06/04 00:11:48;;;;;;;44.25;22.52;;;20.70;64.40;;;;;;5000094;28;20114;-64
2021/06/04 00:14:18;;;;;;;45.15;23.45;;;20.60;64.40;;;;;;4999880;28;20037;-64
2021/06/04 00:16:55;;;;;;;52.58;23.55;;;20.60;64.20;;;;;;5007905;28;20037;-64
2021/06/04 00:19:28;;;;;;;49.70;21.83;;;20.60;64.30;;;;;;4997707;28;20422;-64
2021/06/04 00:22:02;;;;;;;495.42;28.42;;;20.60;64.10;;;;;;5001702;28;20048;-64
2021/06/04 00:24:32;;;;;;;44.33;17.20;;;20.50;63.90;;;;;;5009245;28;20040;-63
2021/06/04 00:27:00;;;;;;;41.60;16.85;;;20.50;63.90;;;;;;5016283;28;20037;-64
2021/06/04 00:29:26;;;;;;;28.33;16.48;;;20.40;63.80;;;;;;5003066;28;20124;-64
2021/06/04 00:31:53;;;;;;;29.63;16.85;;;20.40;64.00;;;;;;5002762;28;20045;-64
2021/06/04 00:34:19;;;;;;;37.55;20.90;;;20.30;64.00;;;;;;5000756;28;20051;-64
2021/06/04 00:36:45;;;;;;;38.00;20.80;;;20.30;64.10;;;;;;5009878;28;20448;-64
2021/06/04 00:39:16;;;;;;;43.47;20.35;;;20.30;64.00;;;;;;4997888;28;20553;-64
2021/06/04 00:41:49;;;;;;;42.75;22.58;;;20.30;64.20;;;;;;5012339;28;20409;-64
2021/06/04 00:44:15;;;;;;;40.10;21.25;;;20.20;64.20;;;;;;5001173;28;20502;-64
2021/06/04 00:46:44;;;;;;;45.08;22.75;;;20.30;64.40;;;;;;4997543;28;20033;-64
2021/06/04 00:49:11;;;;;;;41.55;21.95;;;20.20;64.40;;;;;;4997298;28;20037;-64
2021/06/04 00:51:51;;;;;;;44.22;22.08;;;20.30;64.70;;;;;;4994671;28;20030;-64
2021/06/04 00:54:18;;;;;;;49.25;23.00;;;20.30;64.80;;;;;;5004004;28;20180;-64
2021/06/04 00:56:48;;;;;;;60.60;25.73;;;20.30;64.70;;;;;;4998594;28;20069;-65
2021/06/04 00:59:27;;;;;;;48.38;24.17;;;20.30;64.80;;;;;;4999859;28;20461;-64
2021/06/04 01:01:53;;;;;;;53.45;25.75;;;20.30;65.00;;;;;;5009172;28;20132;-64
2021/06/04 01:04:22;;;;;;;48.00;25.50;;;20.30;65.00;;;;;;5017016;28;20496;-64
2021/06/04 01:06:56;;;;;;;51.38;25.48;;;20.30;65.00;;;;;;5003852;28;20498;-64
2021/06/04 01:09:26;;;;;;;52.30;27.73;;;20.40;65.00;;;;;;5000441;28;20057;-64
2021/06/04 01:12:06;;;;;;;59.15;27.25;;;20.40;65.00;;;;;;4999905;28;20136;-64
2021/06/04 01:14:45;;;;;;;51.60;25.63;;;20.40;65.00;;;;;;5004637;28;20571;-64
2021/06/04 01:17:24;;;;;;;48.65;25.42;;;20.50;65.00;;;;;;5015449;28;20038;-64
2021/06/04 01:19:58;;;;;;;49.72;24.33;;;20.50;64.90;;;;;;5008057;28;20034;-64
2021/06/04 01:22:50;;;;;;;40.20;22.00;;;20.50;64.60;;;;;;5004218;28;20030;-64
2021/06/04 01:25:37;;;;;;;36.00;19.55;;;20.50;64.50;;;;;;5014860;28;20156;-64
2021/06/04 01:28:26;;;;;;;37.10;21.45;;;20.40;64.40;;;;;;5017033;28;20423;-64
2021/06/04 01:31:09;;;;;;;25.98;17.67;;;20.40;64.50;;;;;;4998929;28;20527;-64
2021/06/04 01:33:49;;;;;;;31.75;17.95;;;20.40;64.60;;;;;;4999421;28;20056;-64
2021/06/04 01:36:18;;;;;;;26.25;16.23;;;20.40;64.50;;;;;;5005364;28;20049;-64
2021/06/04 01:38:45;;;;;;;25.67;15.80;;;20.40;64.40;;;;;;5000586;28;20178;-64
2021/06/04 01:41:13;;;;;;;26.50;16.77;;;20.40;64.30;;;;;;5025927;28;20034;-64
2021/06/04 01:43:51;;;;;;;29.75;19.30;;;20.30;64.30;;;;;;4987769;28;20045;-64
2021/06/04 01:46:34;;;;;;;32.85;19.42;;;20.30;64.30;;;;;;5002050;28;20056;-64
2021/06/04 01:49:09;;;;;;;30.52;18.52;;;20.30;64.20;;;;;;4997711;28;20044;-64
2021/06/04 01:51:53;;;;;;;34.92;20.52;;;20.30;64.20;;;;;;4986405;28;20585;-64
2021/06/04 01:54:32;;;;;;;32.78;19.75;;;20.30;64.20;;;;;;5001533;28;20038;-63
2021/06/04 01:57:03;;;;;;;41.83;22.33;;;20.30;64.30;;;;;;5009112;28;20037;-64
2021/06/04 01:59:41;;;;;;;45.28;23.33;;;20.20;64.30;;;;;;5009718;28;20038;-64
2021/06/04 02:02:10;;;;;;;47.80;24.83;;;20.20;64.30;;;;;;5002524;28;20112;-64
2021/06/04 02:04:50;;;;;;;48.72;26.75;;;20.20;64.30;;;;;;5010697;28;20074;-64
2021/06/04 02:07:25;;;;;;;48.28;23.35;;;20.20;64.20;;;;;;5001813;28;20064;-64
2021/06/04 02:09:50;;;;;;;52.63;24.75;;;20.10;64.20;;;;;;5005132;28;20050;-64
2021/06/04 02:12:16;;;;;;;47.38;25.08;;;20.10;64.20;;;;;;5010681;28;20052;-64
2021/06/04 02:14:49;;;;;;;51.58;24.20;;;20.10;64.30;;;;;;4994777;28;20523;-64
2021/06/04 02:17:33;;;;;;;51.92;25.20;;;20.10;64.30;;;;;;5002813;28;20038;-64
2021/06/04 02:20:19;;;;;;;58.25;25.45;;;20.10;64.40;;;;;;5005963;28;20056;-64
2021/06/04 02:23:08;;;;;;;60.03;25.80;;;20.10;64.30;;;;;;5004374;28;20747;-64
2021/06/04 02:26:15;;;;;;;65.40;25.60;;;20.00;64.30;;;;;;4993199;28;20049;-64
2021/06/04 02:28:53;;;;;;;49.35;25.38;;;20.00;64.40;;;;;;4976847;28;20156;-64
2021/06/04 02:31:56;;;;;;;57.75;26.80;;;20.00;64.40;;;;;;4975794;28;20068;-64
2021/06/04 02:34:30;;;;;;;78.20;29.83;;;19.90;64.30;;;;;;4998067;28;20075;-64
2021/06/04 02:37:03;;;;;;;56.95;27.48;;;19.90;64.40;;;;;;4985662;28;20041;-64
2021/06/04 02:39:38;;;;;;;60.45;28.05;;;19.90;64.60;;;;;;5002878;28;20041;-64
2021/06/04 02:42:14;;;;;;;60.35;26.08;;;19.90;64.60;;;;;;5021312;28;20116;-63
2021/06/04 02:44:54;;;;;;;56.83;26.52;;;19.90;64.60;;;;;;5007540;28;20084;-63
2021/06/04 02:47:40;;;;;;;57.38;27.33;;;19.90;64.50;;;;;;4983332;28;20039;-64
2021/06/04 02:50:28;;;;;;;54.92;27.70;;;19.80;64.40;;;;;;4993045;28;20483;-64
2021/06/04 02:52:54;;;;;;;70.00;29.30;;;19.80;64.50;;;;;;4999413;28;20179;-64
2021/06/04 02:55:32;;;;;;;73.40;29.10;;;19.80;64.40;;;;;;4997275;28;20056;-64
2021/06/04 02:58:02;;;;;;;67.38;28.27;;;19.80;64.50;;;;;;5006160;28;20170;-64
2021/06/04 03:00:42;;;;;;;71.07;30.48;;;19.80;64.60;;;;;;5001014;28;20049;-64
2021/06/04 03:03:08;;;;;;;67.80;30.85;;;19.70;64.50;;;;;;4998202;28;20041;-63
2021/06/04 03:05:37;;;;;;;56.05;27.40;;;19.70;64.60;;;;;;4998874;28;20038;-64
2021/06/04 03:08:07;;;;;;;46.45;23.02;;;19.70;64.40;;;;;;5001240;28;20084;-64
2021/06/04 03:10:42;;;;;;;34.30;20.00;;;19.70;64.30;;;;;;5016982;28;20034;-64
2021/06/04 03:13:11;;;;;;;39.22;19.17;;;19.70;64.30;;;;;;5000747;28;20128;-63
2021/06/04 03:15:40;;;;;;;51.28;24.92;;;19.60;64.30;;;;;;5000461;28;20052;-63
2021/06/04 03:18:11;;;;;;;43.30;23.90;;;19.60;64.40;;;;;;4998998;28;20598;-64
2021/06/04 03:20:44;;;;;;;42.20;22.20;;;19.60;64.50;;;;;;5005064;28;20099;-64
2021/06/04 03:23:14;;;;;;;51.05;24.13;;;19.60;64.50;;;;;;5002269;28;20042;-64
2021/06/04 03:25:43;;;;;;;44.97;23.00;;;19.60;64.50;;;;;;5003495;28;20131;-64
2021/06/04 03:28:13;;;;;;;50.35;21.55;;;19.60;64.50;;;;;;5004909;28;20423;-64
2021/06/04 03:30:42;;;;;;;36.90;19.98;;;19.60;64.60;;;;;;4995337;28;20103;-64
2021/06/04 03:33:10;;;;;;;33.40;19.27;;;19.60;64.50;;;;;;4999914;28;20328;-63
2021/06/04 03:35:41;;;;;;;30.13;16.98;;;19.60;64.70;;;;;;4998054;28;20042;-63
2021/06/04 03:38:14;;;;;;;32.28;17.42;;;19.60;64.60;;;;;;4998728;28;20526;-64
2021/06/04 03:40:40;;;;;;;33.20;18.27;;;19.60;64.60;;;;;;4993652;28;20138;-64
2021/06/04 03:43:13;;;;;;;34.03;19.67;;;19.60;64.60;;;;;;4998280;28;20045;-63
2021/06/04 03:45:44;;;;;;;35.53;20.70;;;19.60;64.70;;;;;;4994278;28;20127;-64
2021/06/04 03:48:12;;;;;;;39.00;22.58;;;19.60;64.80;;;;;;5004515;28;20042;-63
2021/06/04 03:50:40;;;;;;;42.72;22.75;;;19.60;64.80;;;;;;4996864;28;20518;-64
2021/06/04 03:53:12;;;;;;;32.47;20.15;;;19.60;64.70;;;;;;4994548;28;20658;-64
2021/06/04 03:55:42;;;;;;;35.70;22.05;;;19.70;64.70;;;;;;4999518;28;20076;-64
2021/06/04 03:58:10;;;;;;;39.92;22.48;;;19.70;64.70;;;;;;5004430;28;20122;-63
2021/06/04 04:00:44;;;;;;;40.83;23.13;;;19.70;64.80;;;;;;5014390;28;20495;-63
2021/06/04 04:03:14;;;;;;;45.47;24.02;;;19.70;64.70;;;;;;5008287;28;20053;-63
2021/06/04 04:05:40;;;;;;;28.60;18.60;;;19.80;64.80;;;;;;5009129;28;20046;-64
2021/06/04 04:08:13;;;;;;;28.35;18.60;;;19.80;64.70;;;;;;5007533;28;20098;-65
2021/06/04 04:10:39;;;;;;;32.13;21.00;;;19.80;64.70;;;;;;5013493;28;20061;-65
2021/06/04 04:13:05;;;;;;;35.65;22.88;;;19.80;65.40;;;;;;5014225;28;20033;-63
2021/06/04 04:15:33;;;;;;;41.30;21.58;;;19.80;64.70;;;;;;5019080;28;20407;-64
2021/06/04 04:18:02;;;;;;;43.15;23.58;;;19.80;64.80;;;;;;5010706;28;20045;-64
2021/06/04 04:20:39;;;;;;;31.05;20.80;;;19.90;64.80;;;;;;5017980;28;20660;-64
2021/06/04 04:23:08;;;;;;;38.88;22.83;;;19.90;64.80;;;;;;5010673;28;20172;-64
2021/06/04 04:25:36;;;;;;;31.40;20.63;;;19.90;64.90;;;;;;5009348;28;20538;-64
2021/06/04 04:28:05;;;;;;;40.15;22.60;;;20.00;65.00;;;;;;5002270;28;20041;-64
2021/06/04 04:30:33;;;;;;;52.17;24.63;;;20.00;65.00;;;;;;5011751;28;20053;-63
2021/06/04 04:32:59;;;;;;;59.47;28.90;;;20.10;65.00;;;;;;5011892;28;20049;-64
2021/06/04 04:35:29;;;;;;;61.08;32.47;;;20.10;65.00;;;;;;5002682;28;20078;-64
2021/06/04 04:38:00;;;;;;;51.75;29.33;;;20.20;65.10;;;;;;5013913;28;20112;-64
2021/06/04 04:40:32;;;;;;;56.42;30.85;;;20.30;65.20;;;;;;5009705;28;20403;-64
2021/06/04 04:43:02;;;;;;;54.92;31.83;;;20.50;65.30;;;;;;5007978;28;20037;-64
2021/06/04 04:45:29;;;;;;;59.22;34.63;;;20.50;65.30;;;;;;5011507;28;20625;-64
2021/06/04 04:47:55;;;;;;;52.58;32.22;;;20.60;65.60;;;;;;5010272;28;20041;-63
2021/06/04 04:50:26;;;;;;;55.50;34.55;;;20.80;65.50;;;;;;5001034;28;20788;-63
2021/06/04 04:52:52;;;;;;;64.30;37.85;;;20.90;65.50;;;;;;5005182;28;20079;-64
2021/06/04 04:55:20;;;;;;;64.43;37.60;;;21.00;65.40;;;;;;5010744;28;20041;-63
2021/06/04 04:57:48;;;;;;;57.60;37.15;;;21.10;65.30;;;;;;5005690;28;21011;-64
2021/06/04 05:00:20;;;;;;;51.50;34.47;;;21.30;65.30;;;;;;5003903;28;20041;-64
2021/06/04 05:02:46;;;;;;;54.58;35.63;;;21.40;65.20;;;;;;5003040;28;20045;-63
2021/06/04 05:05:15;;;;;;;51.20;34.95;;;21.50;65.10;;;;;;5004499;28;20049;-63
2021/06/04 05:07:40;;;;;;;54.30;34.08;;;21.60;65.00;;;;;;5006352;28;20046;-64
2021/06/04 05:10:07;;;;;;;49.97;33.35;;;21.70;64.80;;;;;;5009689;28;20041;-64
2021/06/04 05:12:34;;;;;;;53.45;35.00;;;21.80;64.80;;;;;;5008085;28;20033;-65
2021/06/04 05:15:00;;;;;;;45.60;32.53;;;21.90;64.60;;;;;;4997547;28;20041;-63
2021/06/04 05:17:25;;;;;;;51.22;34.40;;;22.00;64.70;;;;;;5013968;28;20045;-63
2021/06/04 05:19:54;;;;;;;46.20;33.67;;;22.10;64.40;;;;;;5011628;28;20529;-64
2021/06/04 05:22:22;;;;;;;44.80;32.33;;;22.20;64.30;;;;;;4996459;28;20638;-63
2021/06/04 05:24:51;;;;;;;41.85;32.53;;;22.30;64.20;;;;;;5012444;28;20428;-64
2021/06/04 05:27:19;;;;;;;44.85;30.98;;;22.40;64.00;;;;;;5023678;28;20045;-64
2021/06/04 05:29:44;;;;;;;41.33;32.08;;;22.40;63.90;;;;;;5012256;28;20246;-64
2021/06/04 05:32:14;;;;;;;40.88;31.35;;;22.50;63.60;;;;;;5017617;28;20552;-63
2021/06/04 05:34:39;;;;;;;38.20;30.85;;;22.60;63.30;;;;;;5020094;28;20136;-64
2021/06/04 05:37:08;;;;;;;43.30;30.95;;;22.70;63.20;;;;;;5021298;28;20159;-64
2021/06/04 05:39:36;;;;;;;40.80;30.48;;;22.80;63.80;;;;;;4999427;28;20037;-63
2021/06/04 05:42:04;;;;;;;38.92;29.77;;;22.80;63.00;;;;;;5007590;28;20061;-64
2021/06/04 05:44:31;;;;;;;40.47;29.95;;;22.90;62.90;;;;;;5012024;28;20048;-64
2021/06/04 05:47:01;;;;;;;38.10;30.08;;;23.00;63.30;;;;;;5011716;28;20056;-64
2021/06/04 05:49:27;;;;;;;36.35;28.20;;;23.20;62.90;;;;;;5011842;28;20139;-64
2021/06/04 05:51:55;;;;;;;34.60;28.08;;;23.30;62.40;;;;;;5020051;28;20053;-64
2021/06/04 05:54:27;;;;;;;40.72;27.33;;;23.30;62.20;;;;;;5017128;28;20483;-64
2021/06/04 05:56:55;;;;;;;38.35;27.83;;;23.40;62.20;;;;;;5019480;28;20124;-64
2021/06/04 05:59:21;;;;;;;30.33;24.98;;;23.50;62.70;;;;;;5011031;28;20043;-64
2021/06/04 06:01:49;;;;;;;27.05;21.13;;;23.70;62.80;;;;;;5017546;28;20037;-65
2021/06/04 06:04:20;;;;;;;25.60;20.88;;;24.00;62.70;;;;;;5013258;28;20042;-64
2021/06/04 06:06:45;;;;;;;27.42;20.90;;;24.30;61.70;;;;;;5012463;28;20129;-64
2021/06/04 06:09:16;;;;;;;26.35;21.02;;;24.50;60.60;;;;;;5005310;28;20415;-64
2021/06/04 06:11:44;;;;;;;26.83;21.40;;;24.70;59.90;;;;;;5022481;28;20067;-64
2021/06/04 06:14:12;;;;;;;29.17;20.58;;;25.00;59.60;;;;;;5010849;28;20403;-64
2021/06/04 06:16:38;;;;;;;24.55;20.67;;;;;;;;;;5016828;28;20395;-64
2021/06/04 06:19:07;;;;;;;28.05;21.38;;;;;;;;;;5022069;28;20033;-64
2021/06/04 06:21:34;;;;;;;26.50;20.90;;;;;;;;;;5038874;28;20038;-64
2021/06/04 06:24:00;;;;;;;24.77;20.40;;;;;;;;;;5016041;28;20060;-64
2021/06/04 06:26:28;;;;;;;26.33;20.27;;;;;;;;;;5017800;28;21633;-64
2021/06/04 06:28:55;;;;;;;26.77;20.30;;;;;;;;;;5017506;28;20042;-64
2021/06/04 06:31:23;;;;;;;28.15;20.85;;;;;;;;;;5016299;28;20099;-64
2021/06/04 06:33:52;;;;;;;27.83;20.25;;;;;;;;;;5024920;28;20040;-64
2021/06/04 06:36:22;;;;;;;29.77;21.63;;;25.20;59.10;;;;;;5013180;28;20041;-64
2021/06/04 06:38:49;;;;;;;26.60;21.13;;;28.30;51.60;;;;;;5013060;28;20787;-64
2021/06/04 06:41:17;;;;;;;32.38;22.55;;;28.10;51.60;;;;;;5014515;28;20192;-64
2021/06/04 06:43:47;;;;;;;33.00;21.75;;;27.80;52.00;;;;;;5013580;28;20100;-64
2021/06/04 06:46:15;;;;;;;26.58;22.45;;;27.80;52.50;;;;;;5011392;28;20071;-64
2021/06/04 06:48:40;;;;;;;28.85;22.48;;;27.80;52.40;;;;;;5017247;28;20065;-65
2021/06/04 06:51:09;;;;;;;32.65;24.40;;;27.70;52.20;;;;;;5012865;28;20192;-64
2021/06/04 06:53:35;;;;;;;28.58;23.02;;;27.50;52.40;;;;;;5023459;28;20040;-65
2021/06/04 06:56:02;;;;;;;33.83;24.92;;;27.30;52.60;;;;;;5016006;28;20072;-65
2021/06/04 06:58:28;;;;;;;28.77;23.08;;;27.10;52.60;;;;;;5013238;28;20073;-65
2021/06/04 07:00:54;;;;;;;32.55;23.38;;;26.80;52.80;;;;;;5016728;28;20113;-64
2021/06/04 07:03:30;;;;;;;30.63;23.38;;;26.70;53.40;;;;;;5015259;28;20080;-65
2021/06/04 07:06:00;;;;;;;31.70;23.98;;;26.60;53.70;;;;;;5016388;28;20049;-64
2021/06/04 07:08:28;;;;;;;30.50;23.60;;;26.60;54.00;;;;;;5011233;28;20038;-65
2021/06/04 07:10:56;;;;;;;30.30;24.55;;;26.50;54.30;;;;;;5018068;28;20034;-64
2021/06/04 07:13:27;;;;;;;27.10;23.30;;;26.60;54.50;;;;;;5011019;28;20049;-65
2021/06/04 07:15:58;;;;;;;31.27;24.70;;;26.50;54.50;;;;;;5008379;28;20052;-64
2021/06/04 07:18:24;;;;;;;32.38;25.45;;;26.60;54.40;;;;;;5010866;28;20048;-65
2021/06/04 07:20:50;;;;;;;34.45;24.40;;;26.60;54.30;;;;;;5016255;28;20084;-64
2021/06/04 07:23:16;;;;;;;30.33;24.35;;;26.50;54.40;;;;;;5016405;28;20120;-65
2021/06/04 07:25:46;;;;;;;31.90;24.08;;;26.50;54.40;;;;;;5012993;28;20045;-64
2021/06/04 07:28:14;;;;;;;34.38;24.80;;;26.40;54.30;;;;;;5015952;28;20040;-65
2021/06/04 07:30:54;;;;;;;32.83;26.70;;;26.40;54.70;;;;;;5017719;28;20072;-65
2021/06/04 07:33:28;;;;;;;34.67;26.95;;;26.30;54.80;;;;;;5016717;28;20041;-64
2021/06/04 07:35:58;;;;;;;37.10;28.10;;;26.20;54.90;;;;;;5012864;28;20576;-64
2021/06/04 07:38:23;;;;;;;34.55;27.27;;;26.20;55.60;;;;;;5011562;28;20143;-65
2021/06/04 07:40:52;;;;;;;33.42;27.88;;;26.10;55.80;;;;;;5028188;28;20470;-64
2021/06/04 07:43:21;;;;;;;34.35;26.25;;;26.10;56.00;;;;;;5017876;28;20040;-65
2021/06/04 07:45:48;;;;;;;35.00;27.38;;;26.10;56.10;;;;;;5023978;28;20041;-65
2021/06/04 07:48:16;;;;;;;30.92;25.48;;;26.20;55.80;;;;;;5016310;28;20476;-64
2021/06/04 07:50:43;;;;;;;29.58;24.38;;;26.40;55.50;;;;;;5014358;28;20083;-65
2021/06/04 07:53:13;;;;;;;32.13;24.65;;;26.50;55.00;;;;;;5017748;28;20037;-65
2021/06/04 07:55:41;;;;;;;34.97;25.85;;;26.60;55.40;;;;;;5014029;28;20125;-64
2021/06/04 07:58:09;;;;;;;35.00;26.15;;;26.80;55.70;;;;;;5012639;28;20033;-65
2021/06/04 08:00:37;;;;;;;34.13;25.27;;;27.10;55.60;;;;;;5018689;28;20044;-64
2021/06/04 08:03:05;;;;;;;31.40;26.30;;;27.30;54.70;;;;;;5020786;28;20423;-64
2021/06/04 08:05:37;;;;;;;32.65;26.58;;;27.40;53.80;;;;;;5017767;28;20057;-65
2021/06/04 08:08:08;;;;;;;31.98;25.95;;;27.40;53.40;;;;;;5017495;28;20041;-64
2021/06/04 08:10:34;;;;;;;34.45;27.35;;;27.40;53.40;;;;;;5019444;28;20039;-64
2021/06/04 08:13:00;;;;;;;33.05;26.00;;;27.40;53.70;;;;;;5014253;28;20522;-64
2021/06/04 08:15:37;;;;;;;32.60;25.15;;;27.40;54.00;;;;;;5011183;28;20045;-64
2021/06/04 08:18:03;;;;;;;33.25;26.45;;;27.30;53.40;;;;;;5022001;28;20118;-64
2021/06/04 08:20:34;;;;;;;33.15;26.83;;;27.30;53.60;;;;;;5005800;28;20143;-65
2021/06/04 08:23:04;;;;;;;34.40;26.33;;;27.30;53.30;;;;;;5027330;28;20056;-64
2021/06/04 08:25:35;;;;;;;30.02;26.40;;;27.20;53.40;;;;;;5020579;28;20038;-64
2021/06/04 08:28:06;;;;;;;33.20;26.92;;;27.10;54.00;;;;;;5022498;28;20128;-64
2021/06/04 08:30:32;;;;;;;33.67;27.52;;;27.20;54.20;;;;;;5014439;28;20127;-64
2021/06/04 08:33:03;;;;;;;34.33;27.38;;;27.20;54.10;;;;;;4992825;28;20104;-64
2021/06/04 08:35:32;;;;;;;34.65;27.88;;;27.20;54.50;;;;;;4996190;28;20132;-64
2021/06/04 08:38:02;;;;;;;36.03;28.00;;;27.30;54.30;;;;;;5013664;28;20046;-64
2021/06/04 08:40:34;;;;;;;35.13;26.98;;;27.50;53.90;;;;;;4995833;28;20434;-64
2021/06/04 08:43:39;;;;;;;33.30;25.88;;;27.70;53.60;;;;;;5006296;28;20534;-64
2021/06/04 08:46:08;;;;;;;34.63;26.42;;;28.00;53.80;;;;;;5006439;28;20079;-64
2021/06/04 08:48:40;;;;;;;34.65;27.58;;;28.40;53.10;;;;;;5007786;28;20083;-63
2021/06/04 08:51:15;;;;;;;33.17;25.58;;;28.90;52.80;;;;;;5007421;28;20043;-64
2021/06/04 08:53:59;;;;;;;28.67;22.42;;;;;;;;;;5016557;28;20104;-64
2021/06/04 08:56:29;;;;;;;29.25;22.73;;;;;;;;;;4984547;28;20049;-64
2021/06/04 08:58:58;;;;;;;26.63;21.98;;;;;;;;;;4981734;28;20116;-64
2021/06/04 09:01:29;;;;;;;27.80;21.65;;;;;;;;;;4997274;28;20237;-64
2021/06/04 09:04:03;;;;;;;28.30;22.00;;;;;;;;;;4993878;28;20136;-64
2021/06/04 09:06:36;;;;;;;26.45;20.88;;;;;;;;;;4983893;28;20535;-64
2021/06/04 09:09:27;;;;;;;26.25;19.83;;;;;;;;;;4982574;28;20038;-65
2021/06/04 09:11:55;;;;;;;25.95;20.83;;;;;;;;;;4982891;28;20685;-64
2021/06/04 09:14:24;;;;;;;25.35;22.35;;;;;;;;;;4983012;28;20049;-65
2021/06/04 09:16:52;;;;;;;25.85;20.13;;;;;;;;;;4984605;28;20587;-65
2021/06/04 09:19:32;;;;;;;22.15;19.23;;;;;;;;;;4979516;28;20042;-65
2021/06/04 09:21:58;;;;;;;28.65;25.63;;;;;;;;;;4980972;28;20030;-65
2021/06/04 09:24:44;;;;;;;21.50;19.20;;;;;;;;;;4986217;28;20860;-65
2021/06/04 09:27:29;;;;;;;24.85;20.70;;;;;;;;;;4986257;28;20558;-64
2021/06/04 09:30:13;;;;;;;26.88;20.98;;;;;;;;;;4985696;28;20026;-64
2021/06/04 09:32:40;;;;;;;33.72;20.33;;;29.80;52.80;;;;;;5001487;28;20040;-64
2021/06/04 09:35:16;;;;;;;22.52;20.00;;;41.10;29.60;;;;;;5005861;28;20061;-65
2021/06/04 09:37:43;;;;;;;22.58;20.08;;;;;;;;;;5000305;28;20037;-65
2021/06/04 09:40:15;;;;;;;22.67;20.27;;;;;;;;;;5007500;28;20277;-65
2021/06/04 09:42:49;;;;;;;27.65;21.42;;;;;;;;;;5007150;28;20038;-65
2021/06/04 09:45:22;;;;;;;28.25;23.83;;;;;;;;;;5007467;28;20126;-63
2021/06/04 09:47:59;;;;;;;25.20;22.25;;;;;;;;;;5004450;28;20133;-64
2021/06/04 09:50:45;;;;;;;28.38;23.25;;;41.00;29.80;;;;;;5001147;28;20064;-64
2021/06/04 09:53:22;;;;;;;27.35;22.67;;;36.60;34.70;;;;;;5004109;28;20411;-64
2021/06/04 09:56:13;;;;;;;23.48;20.10;;;35.70;36.40;;;;;;5000372;28;20032;-64
2021/06/04 09:58:57;;;;;;;23.13;18.88;;;;;;;;;;5013195;28;20033;-63
2021/06/04 10:01:27;;;;;;;26.02;21.50;;;;;;;;;;5005025;28;20037;-64
2021/06/04 10:03:57;;;;;;;21.63;19.33;;;;;;;;;;5005545;28;20037;-64
2021/06/04 10:06:27;;;;;;;20.23;17.75;;;;;;;;;;5000405;28;20062;-64
2021/06/04 10:08:59;;;;;;;25.75;20.88;;;;;;;;;;5003880;28;20509;-64
2021/06/04 10:11:27;;;;;;;25.73;18.85;;;;;;;;;;5001366;28;20085;-64
2021/06/04 10:14:14;;;;;;;27.50;18.90;;;;;;;;;;5006752;28;20120;-64
2021/06/04 10:19:39;;;;;;;23.70;19.02;;;35.30;37.70;;;;;;5012140;28;20064;-64
2021/06/04 10:22:17;;;;;;;20.98;18.13;;;39.20;32.00;;;;;;4997469;28;20071;-64
2021/06/04 10:24:50;;;;;;;22.33;17.55;;;39.30;32.10;;;;;;5004852;28;20036;-64
2021/06/04 10:27:36;;;;;;;19.90;15.25;;;39.40;31.90;;;;;;4999382;28;20495;-64
2021/06/04 10:30:08;;;;;;;20.33;16.70;;;39.60;31.10;;;;;;5007245;28;20072;-64
2021/06/04 10:32:43;;;;;;;17.08;15.27;;;39.70;30.80;;;;;;5006981;28;20034;-64
2021/06/04 10:35:21;;;;;;;18.92;16.83;;;39.60;30.00;;;;;;5012631;28;20095;-64
2021/06/04 10:38:14;;;;;;;20.48;16.15;;;39.40;30.10;;;;;;5006921;28;20088;-64
2021/06/04 10:40:52;;;;;;;21.35;16.88;;;39.30;30.20;;;;;;5001271;28;20537;-65
2021/06/04 10:43:30;;;;;;;24.27;17.38;;;38.90;30.20;;;;;;5007022;28;20569;-64
2021/06/04 10:46:06;;;;;;;24.48;16.58;;;38.30;30.70;;;;;;5004191;28;20056;-64
2021/06/04 10:49:03;;;;;;;20.27;18.02;;;37.90;32.40;;;;;;5022336;28;20527;-63
2021/06/04 10:51:40;;;;;;;24.35;19.77;;;37.60;32.30;;;;;;5003070;28;20105;-64
2021/06/04 10:54:25;;;;;;;26.40;21.65;;;37.30;32.20;;;;;;5000267;28;20132;-63
2021/06/04 10:57:03;;;;;;;22.50;19.63;;;36.80;32.80;;;;;;5014944;28;20037;-63
2021/06/04 10:59:38;;;;;;;20.52;16.50;;;36.20;34.10;;;;;;4999302;28;20092;-64
2021/06/04 11:02:29;;;;;;;20.48;16.23;;;35.90;36.20;;;;;;5003034;28;20053;-64
2021/06/04 11:05:19;;;;;;;17.55;15.20;;;35.60;36.40;;;;;;5007078;28;20087;-64
2021/06/04 11:07:56;;;;;;;23.27;17.60;;;35.40;37.80;;;;;;5000017;28;20095;-64
2021/06/04 11:10:28;;;;;;;20.80;17.02;;;35.30;36.20;;;;;;5022253;28;20041;-63
2021/06/04 11:13:12;;;;;;;23.55;16.85;;;35.30;36.50;;;;;;5008091;28;20469;-64
2021/06/04 11:15:54;;;;;;;25.73;17.23;;;35.30;38.40;;;;;;4999105;28;20045;-63
2021/06/04 11:18:45;;;;;;;19.38;16.35;;;35.40;38.10;;;;;;4999866;28;20053;-63
2021/06/04 11:21:37;;;;;;;22.40;15.77;;;35.50;37.50;;;;;;5001786;28;20535;-64
2021/06/04 11:24:13;;;;;;;22.05;16.13;;;35.60;38.10;;;;;;4997819;28;20453;-63
2021/06/04 11:26:47;;;;;;;19.63;14.00;;;35.80;36.80;;;;;;5007707;28;20106;-64
2021/06/04 11:29:19;;;;;;;17.25;15.43;;;35.90;35.80;;;;;;5014956;28;20080;-64
2021/06/04 11:32:06;;;;;;;19.05;15.57;;;35.90;35.60;;;;;;5002664;28;20040;-63
2021/06/04 11:34:59;;;;;;;16.85;13.50;;;35.80;34.70;;;;;;4992026;28;20426;-64
2021/06/04 11:37:25;;;;;;;16.85;14.15;;;35.80;34.80;;;;;;4991253;28;20095;-63
2021/06/04 11:39:55;;;;;;;18.20;13.10;;;35.80;34.30;;;;;;5019958;28;20574;-63
2021/06/04 11:42:39;;;;;;;16.13;12.25;;;35.80;35.20;;;;;;5009004;28;20831;-64
2021/06/04 11:45:11;;;;;;;17.10;13.60;;;35.80;36.00;;;;;;4994500;28;20048;-64
2021/06/04 11:47:38;;;;;;;22.13;14.15;;;35.80;34.80;;;;;;4997321;28;20587;-64
2021/06/04 11:50:25;;;;;;;19.15;15.77;;;35.80;35.50;;;;;;5005581;28;20072;-63
2021/06/04 11:52:56;;;;;;;18.98;15.57;;;35.70;35.80;;;;;;4999555;28;20029;-64
2021/06/04 11:55:32;;;;;;;24.52;15.95;;;35.40;36.00;;;;;;4996833;28;20155;-63
2021/06/04 11:58:18;;;;;;;22.17;14.25;;;34.90;36.40;;;;;;4997128;28;20083;-64
2021/06/04 12:00:48;;;;;;;22.23;16.80;;;34.50;37.90;;;;;;5008298;28;20124;-64
2021/06/04 12:03:15;;;;;;;22.98;16.38;;;34.10;38.90;;;;;;4990731;28;20137;-63
2021/06/04 12:05:51;;;;;;;20.55;16.02;;;33.90;39.00;;;;;;4992231;28;20091;-63
2021/06/04 12:08:35;;;;;;;25.60;15.82;;;33.80;38.40;;;;;;4988833;28;20034;-64
2021/06/04 12:11:21;;;;;;;20.88;15.10;;;33.50;39.10;;;;;;4994882;28;20251;-63
2021/06/04 12:13:50;;;;;;;20.77;14.77;;;33.30;40.40;;;;;;4994434;28;20128;-64
2021/06/04 12:18:49;;;;;;;27.88;14.85;;;33.10;41.50;;;;;;4988531;28;20042;-64
2021/06/04 12:21:33;;;;;;;25.60;15.27;;;;;;;;;;4990233;28;20415;-63
2021/06/04 12:24:00;;;;;;;23.52;15.35;;;;;;;;;;4992928;28;20045;-63
2021/06/04 12:26:36;;;;;;;20.02;14.98;;;;;;;;;;4993185;28;20555;-64
2021/06/04 12:29:31;;;;;;;16.50;12.63;;;;;;;;;;5008603;28;20042;-64
2021/06/04 12:32:01;;;;;;;17.35;12.15;;;;;;;;;;4993848;28;20041;-63
2021/06/04 12:34:57;;;;;;;15.23;11.35;;;;;;;;;;4989027;28;20076;-63
2021/06/04 12:37:25;;;;;;;18.33;10.73;;;;;;;;;;4989450;28;20025;-64
2021/06/04 12:40:10;;;;;;;15.85;10.90;;;;;;;;;;5004895;28;20087;-64
2021/06/04 12:42:41;;;;;;;14.55;10.88;;;;;;;;;;4991660;28;20073;-64
2021/06/04 12:45:09;;;;;;;15.25;10.40;;;;;;;;;;4992468;28;20515;-64
2021/06/04 12:47:39;;;;;;;14.30;10.40;;;;;;;;;;4990491;28;20033;-64
2021/06/04 12:50:11;;;;;;;13.73;9.00;;;;;;;;;;5007533;28;20032;-63
2021/06/04 12:52:37;;;;;;;16.30;9.52;;;;;;;;;;4989301;28;20403;-63
2021/06/04 12:55:16;;;;;;;15.10;8.50;;;;;;;;;;4989443;28;20468;-63
2021/06/04 12:57:42;;;;;;;16.55;9.25;;;;;;;;;;4991258;28;20070;-64
2021/06/04 13:00:19;;;;;;;9.75;7.50;;;;;;;;;;4993121;28;20143;-64
2021/06/04 13:02:47;;;;;;;18.50;7.43;;;;;;;;;;4989564;28;20041;-63
2021/06/04 13:05:15;;;;;;;14.68;6.40;;;;;;;;;;4988174;28;20069;-64
2021/06/04 13:07:42;;;;;;;9.35;6.80;;;;;;;;;;4994095;28;20049;-63
2021/06/04 13:10:11;;;;;;;11.48;6.38;;;;;;;;;;5005134;28;20116;-63
2021/06/04 13:12:40;;;;;;;10.93;6.40;;;;;;;;;;4990836;28;20460;-65
2021/06/04 13:15:20;;;;;;;9.50;6.25;;;;;;;;;;4992574;28;20044;-63
2021/06/04 13:18:12;;;;;;;6.90;5.55;;;;;;;;;;4987181;28;20513;-64
2021/06/04 13:20:40;;;;;;;10.60;5.15;;;;;;;;;;4990151;28;20042;-63